Time;durP1;ratioP1;P1;durP2;ratioP2;P2;SDS_P1;SDS_P2;PMS_P1;PMS_P2;Temp;Humidity;BMP_temperature;BMP_pressure;BME280_temperature;BME280_humidity;BME280_pressure;Samples;Min_cycle;Max_cycle;Signal;HPM_P1;HPM_P2
2021/08/11 00:01:40;;;;;;;13.90;9.98;;;15.40;99.90;;;;;;5059453;28;20032;-71
2021/08/11 00:04:06;;;;;;;15.27;12.00;;;15.40;99.90;;;;;;5045202;28;20074;-71
2021/08/11 00:06:31;;;;;;;14.85;9.63;;;15.40;99.90;;;;;;5051714;28;20029;-71
2021/08/11 00:08:57;;;;;;;14.35;9.73;;;15.40;99.90;;;;;;5052896;28;20112;-71
2021/08/11 00:11:23;;;;;;;13.05;9.23;;;15.40;99.90;;;;;;5056007;28;20047;-71
2021/08/11 00:13:48;;;;;;;14.93;9.60;;;15.30;99.90;;;;;;5023789;28;20025;-71
2021/08/11 00:16:14;;;;;;;12.20;9.82;;;15.30;99.90;;;;;;5057854;28;20020;-71
2021/08/11 00:18:40;;;;;;;14.00;10.10;;;15.40;99.90;;;;;;5041944;28;20033;-71
2021/08/11 00:21:06;;;;;;;12.98;9.68;;;15.40;99.90;;;;;;5038709;28;20059;-70
2021/08/11 00:23:32;;;;;;;12.95;9.05;;;15.30;99.90;;;;;;5039470;28;20060;-70
2021/08/11 00:25:58;;;;;;;10.73;9.13;;;15.30;99.90;;;;;;5046465;28;20495;-71
2021/08/11 00:28:25;;;;;;;15.02;9.60;;;15.30;99.90;;;;;;5056424;28;20036;-70
2021/08/11 00:30:52;;;;;;;13.27;9.45;;;15.30;99.90;;;;;;5055855;28;20040;-71
2021/08/11 00:33:19;;;;;;;14.10;8.90;;;15.30;99.90;;;;;;5045578;28;20092;-69
2021/08/11 00:35:45;;;;;;;12.05;8.90;;;15.30;99.90;;;;;;5046331;28;20067;-70
2021/08/11 00:38:11;;;;;;;14.05;9.95;;;15.20;99.90;;;;;;5037719;28;20798;-72
2021/08/11 00:40:38;;;;;;;13.23;9.27;;;15.20;99.90;;;;;;5057822;28;20076;-71
2021/08/11 00:43:08;;;;;;;14.68;9.80;;;15.20;99.90;;;;;;5054861;28;20025;-71
2021/08/11 00:45:35;;;;;;;14.90;10.05;;;15.20;99.90;;;;;;5051664;28;20054;-71
2021/08/11 00:48:01;;;;;;;14.02;9.15;;;15.20;99.90;;;;;;5037734;28;20483;-71
2021/08/11 00:50:27;;;;;;;11.85;9.55;;;15.20;99.90;;;;;;5056962;28;20021;-70
2021/08/11 00:52:53;;;;;;;13.40;10.20;;;15.20;99.90;;;;;;5054900;28;20021;-70
2021/08/11 00:55:20;;;;;;;14.77;9.60;;;15.10;99.90;;;;;;5052018;28;20021;-69
2021/08/11 00:57:46;;;;;;;14.75;10.40;;;15.10;99.90;;;;;;5043994;28;20096;-71
2021/08/11 01:00:16;;;;;;;15.02;8.80;;;15.10;99.90;;;;;;5055236;28;20033;-71
2021/08/11 01:02:45;;;;;;;17.10;10.30;;;15.10;99.90;;;;;;5034898;28;20025;-71
2021/08/11 01:05:13;;;;;;;16.08;10.52;;;15.10;99.90;;;;;;5051134;28;20501;-70
2021/08/11 01:07:39;;;;;;;13.73;9.90;;;15.10;99.90;;;;;;5030613;28;20036;-71
2021/08/11 01:10:06;;;;;;;13.45;9.93;;;15.00;99.90;;;;;;5059228;28;20096;-70
2021/08/11 01:12:33;;;;;;;12.70;9.32;;;15.00;99.90;;;;;;5062350;28;20037;-71
2021/08/11 01:15:00;;;;;;;16.08;10.00;;;15.00;99.90;;;;;;5056394;28;20036;-70
2021/08/11 01:17:27;;;;;;;16.50;10.05;;;15.00;99.90;;;;;;5059090;28;20030;-70
2021/08/11 01:19:56;;;;;;;12.20;9.27;;;15.00;99.90;;;;;;5063302;28;20040;-70
2021/08/11 01:22:33;;;;;;;15.93;10.70;;;15.00;99.90;;;;;;5056466;28;20100;-71
2021/08/11 01:25:10;;;;;;;13.07;10.10;;;14.90;99.90;;;;;;5056741;28;20040;-71
2021/08/11 01:27:49;;;;;;;14.60;10.63;;;15.00;99.90;;;;;;5062566;28;20023;-71
2021/08/11 01:30:28;;;;;;;14.13;9.98;;;15.00;99.90;;;;;;5061154;28;20392;-71
2021/08/11 01:32:59;;;;;;;13.40;10.63;;;14.90;99.90;;;;;;5061710;28;20029;-71
2021/08/11 01:35:33;;;;;;;18.45;11.00;;;14.90;99.90;;;;;;5050268;28;20471;-71
2021/08/11 01:38:01;;;;;;;14.05;9.43;;;14.90;99.90;;;;;;5057641;28;20025;-70
2021/08/11 01:40:29;;;;;;;15.00;9.52;;;14.90;99.90;;;;;;5055235;28;20029;-69
2021/08/11 01:42:58;;;;;;;18.35;11.75;;;14.90;99.90;;;;;;5063189;28;20029;-69
2021/08/11 01:45:36;;;;;;;17.45;11.80;;;14.90;99.90;;;;;;5064972;28;20059;-71
2021/08/11 01:48:09;;;;;;;15.55;11.32;;;14.80;99.90;;;;;;5058247;28;20021;-71
2021/08/11 01:50:39;;;;;;;15.75;11.15;;;14.80;99.90;;;;;;5054562;28;20407;-71
2021/08/11 01:53:07;;;;;;;15.75;10.75;;;14.80;99.90;;;;;;5062043;28;20060;-71
2021/08/11 01:55:34;;;;;;;14.90;10.57;;;14.80;99.90;;;;;;5053944;28;20032;-70
2021/08/11 01:58:01;;;;;;;14.30;9.93;;;14.80;99.90;;;;;;5057414;28;20028;-71
2021/08/11 02:00:27;;;;;;;14.65;11.02;;;14.80;99.90;;;;;;5047179;28;20021;-71
2021/08/11 02:02:53;;;;;;;15.48;10.95;;;14.80;99.90;;;;;;5047392;28;20025;-69
2021/08/11 02:05:22;;;;;;;20.52;12.73;;;14.80;99.90;;;;;;5063871;28;20029;-71
2021/08/11 02:07:48;;;;;;;16.92;11.38;;;14.70;99.90;;;;;;5051454;28;20037;-71
2021/08/11 02:10:16;;;;;;;14.52;10.75;;;14.80;99.90;;;;;;5053787;28;20044;-70
2021/08/11 02:12:42;;;;;;;15.27;11.07;;;14.70;99.90;;;;;;5051507;28;20035;-70
2021/08/11 02:15:09;;;;;;;17.88;11.40;;;14.70;99.90;;;;;;5044837;28;20033;-70
2021/08/11 02:17:42;;;;;;;16.17;11.45;;;14.70;99.90;;;;;;5056924;28;20040;-70
2021/08/11 02:20:10;;;;;;;18.30;12.32;;;14.70;99.90;;;;;;5049687;28;20075;-68
2021/08/11 02:22:36;;;;;;;17.48;11.80;;;14.70;99.90;;;;;;5043438;28;20147;-71
2021/08/11 02:25:12;;;;;;;17.77;12.70;;;14.70;99.90;;;;;;5042544;28;20093;-71
2021/08/11 02:28:03;;;;;;;21.35;12.65;;;14.70;99.90;;;;;;5058741;28;20548;-71
2021/08/11 02:30:41;;;;;;;16.70;12.15;;;14.60;99.90;;;;;;5052014;28;20487;-71
2021/08/11 02:33:30;;;;;;;20.45;12.80;;;14.60;99.90;;;;;;5055585;28;20469;-71
2021/08/11 02:36:02;;;;;;;18.52;13.13;;;14.60;99.90;;;;;;5050702;28;20047;-69
2021/08/11 02:38:40;;;;;;;17.67;13.05;;;14.60;99.90;;;;;;5057460;28;20030;-71
2021/08/11 02:41:31;;;;;;;19.05;12.77;;;14.60;99.90;;;;;;5049935;28;20033;-70
2021/08/11 02:44:13;;;;;;;18.42;12.85;;;14.60;99.90;;;;;;5037102;28;20021;-71
2021/08/11 02:46:42;;;;;;;22.58;14.07;;;14.50;99.90;;;;;;5036028;28;20040;-71
2021/08/11 02:49:13;;;;;;;19.42;14.07;;;14.50;99.90;;;;;;5037816;28;20128;-70
2021/08/11 02:51:40;;;;;;;;;;;14.50;99.90;;;;;;5038235;28;20038;-71
2021/08/11 02:54:11;;;;;;;19.25;13.85;;;14.50;99.90;;;;;;5056022;28;19955;-70
2021/08/11 02:56:41;;;;;;;19.73;13.55;;;14.50;99.90;;;;;;5044837;28;20047;-70
2021/08/11 02:59:08;;;;;;;20.20;13.48;;;14.50;99.90;;;;;;5049607;28;20459;-70
2021/08/11 03:01:34;;;;;;;20.08;13.75;;;14.50;99.90;;;;;;5040280;28;20040;-71
2021/08/11 03:04:00;;;;;;;17.65;12.60;;;14.50;99.90;;;;;;5055144;28;20033;-70
2021/08/11 03:06:26;;;;;;;18.65;13.68;;;14.50;99.90;;;;;;5038285;28;20093;-70
2021/08/11 03:08:52;;;;;;;23.48;13.88;;;14.50;99.90;;;;;;5047393;28;20029;-71
2021/08/11 03:11:19;;;;;;;20.73;14.38;;;14.50;99.90;;;;;;5052565;28;20067;-71
2021/08/11 03:13:45;;;;;;;17.65;12.95;;;14.40;99.90;;;;;;5034017;28;20117;-69
2021/08/11 03:16:12;;;;;;;20.23;13.80;;;14.40;99.90;;;;;;5052725;28;20063;-70
2021/08/11 03:18:38;;;;;;;20.55;13.35;;;14.40;99.90;;;;;;5053000;28;20044;-71
2021/08/11 03:21:05;;;;;;;19.70;14.52;;;14.40;99.90;;;;;;5042249;28;20043;-71
2021/08/11 03:23:31;;;;;;;18.17;14.40;;;14.40;99.90;;;;;;5059744;28;20170;-70
2021/08/11 03:25:57;;;;;;;20.05;14.55;;;14.40;99.90;;;;;;5046712;28;20119;-71
2021/08/11 03:28:22;;;;;;;20.95;13.80;;;14.40;99.90;;;;;;5035570;28;20024;-71
2021/08/11 03:30:49;;;;;;;24.35;14.70;;;14.40;99.90;;;;;;5052148;28;20033;-71
2021/08/11 03:33:17;;;;;;;19.08;13.15;;;14.40;99.90;;;;;;5018638;28;20084;-71
2021/08/11 03:35:43;;;;;;;20.30;13.13;;;14.40;99.90;;;;;;5052425;28;20056;-70
2021/08/11 03:38:09;;;;;;;20.98;14.98;;;14.40;99.90;;;;;;5050559;28;20492;-71
2021/08/11 03:40:35;;;;;;;20.85;14.15;;;14.40;99.90;;;;;;5055024;28;20442;-71
2021/08/11 03:43:01;;;;;;;22.42;15.60;;;14.40;99.90;;;;;;5045018;28;20036;-71
2021/08/11 03:45:26;;;;;;;23.00;13.25;;;14.40;99.90;;;;;;5053050;28;20074;-71
2021/08/11 03:47:52;;;;;;;20.50;13.55;;;14.30;99.90;;;;;;5057059;28;20054;-70
2021/08/11 03:50:20;;;;;;;21.73;14.50;;;14.30;99.90;;;;;;5052463;28;20116;-70
2021/08/11 03:52:46;;;;;;;21.98;14.27;;;14.40;99.90;;;;;;5044662;28;20029;-71
2021/08/11 03:55:13;;;;;;;18.13;13.02;;;14.30;99.90;;;;;;5054899;28;20029;-70
2021/08/11 03:57:40;;;;;;;21.30;14.43;;;14.30;99.90;;;;;;5056576;28;20043;-69
2021/08/11 04:00:07;;;;;;;17.38;12.65;;;14.30;99.90;;;;;;5037173;28;20028;-70
2021/08/11 04:02:32;;;;;;;19.98;14.50;;;14.30;99.90;;;;;;5035510;28;20059;-71
2021/08/11 04:04:58;;;;;;;22.15;14.73;;;14.30;99.90;;;;;;5049601;28;20056;-71
2021/08/11 04:07:24;;;;;;;19.13;13.63;;;14.30;99.90;;;;;;5051045;28;20483;-71
2021/08/11 04:09:49;;;;;;;23.17;15.40;;;14.30;99.90;;;;;;5053288;28;20025;-71
2021/08/11 04:12:15;;;;;;;22.90;14.48;;;14.30;99.90;;;;;;5038218;28;20052;-71
2021/08/11 04:14:41;;;;;;;22.50;13.63;;;14.30;99.90;;;;;;5055215;28;20064;-70
2021/08/11 04:17:08;;;;;;;21.60;14.77;;;14.30;99.90;;;;;;5031675;28;20120;-70
2021/08/11 04:19:34;;;;;;;20.35;14.02;;;14.30;99.90;;;;;;5037244;28;20037;-71
2021/08/11 04:22:00;;;;;;;23.98;14.88;;;14.30;99.90;;;;;;5017887;28;20036;-69
2021/08/11 04:24:26;;;;;;;19.85;13.77;;;14.30;99.90;;;;;;5052550;28;20021;-71
2021/08/11 04:26:52;;;;;;;22.90;16.17;;;14.30;99.90;;;;;;5045547;28;20090;-70
2021/08/11 04:29:18;;;;;;;20.42;14.90;;;14.30;99.90;;;;;;5019784;28;20585;-69
2021/08/11 04:31:44;;;;;;;22.35;16.08;;;14.30;99.90;;;;;;5041637;28;20032;-69
2021/08/11 04:34:09;;;;;;;24.58;16.85;;;14.30;99.90;;;;;;5039221;28;20074;-69
2021/08/11 04:36:35;;;;;;;21.02;15.20;;;14.20;99.90;;;;;;5044498;28;20052;-70
2021/08/11 04:39:01;;;;;;;24.20;16.90;;;14.30;99.90;;;;;;5028717;28;20029;-69
2021/08/11 04:41:27;;;;;;;21.60;16.50;;;14.30;99.90;;;;;;5040147;28;20040;-69
2021/08/11 04:43:52;;;;;;;20.00;15.65;;;14.30;99.90;;;;;;5055914;28;20028;-69
2021/08/11 04:46:18;;;;;;;21.83;15.32;;;14.30;99.90;;;;;;5033708;28;20036;-70
2021/08/11 04:48:44;;;;;;;21.88;16.23;;;14.30;99.90;;;;;;5046315;28;20827;-69
2021/08/11 04:51:10;;;;;;;22.88;16.10;;;14.40;99.90;;;;;;5056823;28;20051;-69
2021/08/11 04:53:35;;;;;;;20.63;15.13;;;14.40;99.90;;;;;;5035516;28;20491;-69
2021/08/11 04:56:01;;;;;;;23.08;15.30;;;14.40;99.90;;;;;;5051381;28;20052;-68
2021/08/11 04:58:27;;;;;;;23.83;15.18;;;14.40;99.90;;;;;;5036770;28;20040;-68
2021/08/11 05:00:53;;;;;;;23.05;15.82;;;14.40;99.90;;;;;;5041328;28;20159;-69
2021/08/11 05:03:18;;;;;;;22.60;16.23;;;14.40;99.90;;;;;;5041759;28;20128;-68
2021/08/11 05:05:44;;;;;;;22.38;15.20;;;14.40;99.90;;;;;;5055121;28;20479;-68
2021/08/11 05:08:10;;;;;;;20.83;15.02;;;14.50;99.90;;;;;;5046290;28;20070;-68
2021/08/11 05:10:36;;;;;;;22.75;14.35;;;14.50;99.90;;;;;;5052624;28;20184;-69
2021/08/11 05:13:01;;;;;;;23.92;15.30;;;14.50;99.90;;;;;;5048543;28;20614;-69
2021/08/11 05:15:27;;;;;;;25.52;15.38;;;14.50;99.90;;;;;;5045047;28;20025;-68
2021/08/11 05:17:53;;;;;;;25.80;14.63;;;14.50;99.90;;;;;;5051473;28;20039;-71
2021/08/11 05:20:19;;;;;;;20.00;15.02;;;14.60;99.90;;;;;;5047456;28;20047;-68
2021/08/11 05:22:48;;;;;;;22.08;14.90;;;14.60;99.90;;;;;;5052824;28;20033;-68
2021/08/11 05:25:14;;;;;;;24.35;15.48;;;14.60;99.90;;;;;;5038134;28;20109;-70
2021/08/11 05:27:44;;;;;;;23.88;14.93;;;14.70;99.90;;;;;;5045284;28;20155;-69
2021/08/11 05:30:10;;;;;;;20.55;14.75;;;14.70;99.90;;;;;;5050501;28;20109;-69
2021/08/11 05:32:36;;;;;;;23.30;16.13;;;14.70;99.90;;;;;;5057184;28;20034;-69
2021/08/11 05:35:04;;;;;;;20.85;15.18;;;14.70;99.90;;;;;;5037343;28;20029;-68
2021/08/11 05:37:29;;;;;;;22.35;15.68;;;14.70;99.90;;;;;;5053312;28;20102;-68
2021/08/11 05:39:55;;;;;;;21.33;14.35;;;14.70;99.90;;;;;;5045297;28;20083;-69
2021/08/11 05:42:21;;;;;;;22.05;15.10;;;14.80;99.90;;;;;;5035765;28;20029;-69
2021/08/11 05:44:49;;;;;;;23.00;14.32;;;14.80;99.90;;;;;;5041063;28;20123;-69
2021/08/11 05:47:15;;;;;;;19.85;14.02;;;14.90;99.90;;;;;;5054011;28;20024;-68
2021/08/11 05:49:41;;;;;;;21.45;13.50;;;14.90;99.90;;;;;;5037212;28;20083;-69
2021/08/11 05:52:07;;;;;;;20.48;13.90;;;14.90;99.90;;;;;;5026774;28;20032;-68
2021/08/11 05:54:36;;;;;;;19.20;12.63;;;14.90;99.90;;;;;;5061956;28;20040;-69
2021/08/11 05:57:04;;;;;;;24.58;15.23;;;14.90;99.90;;;;;;5059221;28;20035;-69
2021/08/11 05:59:30;;;;;;;19.67;13.32;;;15.00;99.90;;;;;;5051527;28;20029;-69
2021/08/11 06:01:56;;;;;;;18.05;13.27;;;15.00;99.90;;;;;;5042254;28;20036;-68
2021/08/11 06:04:23;;;;;;;20.27;13.88;;;15.00;99.90;;;;;;5051897;28;20029;-69
2021/08/11 06:06:51;;;;;;;18.55;12.75;;;15.10;99.90;;;;;;5050785;28;20151;-69
2021/08/11 06:09:16;;;;;;;19.63;13.63;;;15.20;99.90;;;;;;5058551;28;20049;-69
2021/08/11 06:11:42;;;;;;;22.73;14.43;;;15.20;99.90;;;;;;5047396;28;20052;-68
2021/08/11 06:14:08;;;;;;;22.65;14.55;;;15.20;99.90;;;;;;5037853;28;20040;-69
2021/08/11 06:16:33;;;;;;;19.98;12.75;;;15.30;99.90;;;;;;5047087;28;20236;-69
2021/08/11 06:18:59;;;;;;;18.00;12.23;;;15.30;99.90;;;;;;5052361;28;20033;-69
2021/08/11 06:21:26;;;;;;;18.48;13.38;;;15.30;99.90;;;;;;5051066;28;20116;-68
2021/08/11 06:23:52;;;;;;;22.35;13.45;;;15.30;99.90;;;;;;5051575;28;20104;-68
2021/08/11 06:26:19;;;;;;;17.85;12.43;;;15.40;99.90;;;;;;5042108;28;20068;-69
2021/08/11 06:28:45;;;;;;;17.17;11.73;;;15.40;99.90;;;;;;5050822;28;20029;-69
2021/08/11 06:31:14;;;;;;;16.42;11.15;;;15.50;99.90;;;;;;5058872;28;20029;-68
2021/08/11 06:33:40;;;;;;;16.55;11.02;;;15.50;99.90;;;;;;5041683;28;20119;-69
2021/08/11 06:36:06;;;;;;;17.40;11.70;;;15.50;99.90;;;;;;5054565;28;20558;-69
2021/08/11 06:38:32;;;;;;;15.90;11.35;;;15.50;99.90;;;;;;5037897;28;20442;-68
2021/08/11 06:40:57;;;;;;;15.10;11.10;;;15.60;99.90;;;;;;5051714;28;20052;-68
2021/08/11 06:43:23;;;;;;;20.23;12.82;;;15.60;99.90;;;;;;5056414;28;20114;-69
2021/08/11 06:45:49;;;;;;;15.85;10.38;;;15.70;99.90;;;;;;5052965;28;20036;-68
2021/08/11 06:48:15;;;;;;;14.05;10.55;;;15.70;99.90;;;;;;5040979;28;20017;-69
2021/08/11 06:50:40;;;;;;;14.27;10.38;;;15.80;99.90;;;;;;5045748;28;20036;-69
2021/08/11 06:53:06;;;;;;;19.80;12.45;;;15.80;99.90;;;;;;5060832;28;20025;-69
2021/08/11 06:55:32;;;;;;;15.50;10.07;;;15.80;99.90;;;;;;5040339;28;20031;-68
2021/08/11 06:57:58;;;;;;;17.02;11.48;;;15.80;99.90;;;;;;5044334;28;20573;-69
2021/08/11 07:00:24;;;;;;;18.63;10.27;;;15.90;99.90;;;;;;5058730;28;20104;-68
2021/08/11 07:02:50;;;;;;;19.25;11.38;;;15.90;99.90;;;;;;5048556;28;20125;-68
2021/08/11 07:05:16;;;;;;;15.13;9.38;;;16.00;99.90;;;;;;5050594;28;20025;-68
2021/08/11 07:07:42;;;;;;;13.82;9.23;;;16.00;99.90;;;;;;5043053;28;20037;-68
2021/08/11 07:10:11;;;;;;;14.85;9.80;;;16.00;99.90;;;;;;5050104;28;20036;-68
2021/08/11 07:12:38;;;;;;;13.88;9.70;;;16.10;99.90;;;;;;5040575;28;20098;-69
2021/08/11 07:15:08;;;;;;;13.60;9.00;;;16.20;99.90;;;;;;5057171;28;20056;-69
2021/08/11 07:17:34;;;;;;;13.68;9.18;;;16.20;99.90;;;;;;5051615;28;20354;-68
2021/08/11 07:20:00;;;;;;;12.13;7.95;;;16.20;99.90;;;;;;5056395;28;20037;-68
2021/08/11 07:22:26;;;;;;;11.00;8.45;;;16.30;99.90;;;;;;5050609;28;20439;-74
2021/08/11 07:24:52;;;;;;;12.57;8.95;;;16.30;99.90;;;;;;5018658;28;20058;-69
2021/08/11 07:27:18;;;;;;;12.25;8.40;;;16.40;99.90;;;;;;5033820;28;20117;-69
2021/08/11 07:29:44;;;;;;;17.98;9.02;;;16.40;99.90;;;;;;5035929;28;20025;-69
2021/08/11 07:32:09;;;;;;;11.05;8.18;;;16.40;99.90;;;;;;5045703;28;20039;-69
2021/08/11 07:34:35;;;;;;;11.73;7.45;;;16.40;99.90;;;;;;5052997;28;20521;-69
2021/08/11 07:37:01;;;;;;;11.05;6.95;;;16.50;99.90;;;;;;5040441;28;20037;-69
2021/08/11 07:39:27;;;;;;;11.00;7.43;;;16.50;99.90;;;;;;5040933;28;20402;-69
2021/08/11 07:41:52;;;;;;;11.05;6.85;;;16.60;99.90;;;;;;5037725;28;20107;-69
2021/08/11 07:44:18;;;;;;;13.93;7.38;;;16.60;99.90;;;;;;5040041;28;20039;-69
2021/08/11 07:46:45;;;;;;;11.98;7.47;;;16.60;99.90;;;;;;5058117;28;20409;-69
2021/08/11 07:49:10;;;;;;;11.77;7.07;;;16.70;99.90;;;;;;5047882;28;20530;-69
2021/08/11 07:51:36;;;;;;;10.88;7.65;;;16.70;99.90;;;;;;5046169;28;20136;-69
2021/08/11 07:54:02;;;;;;;12.18;7.45;;;16.70;99.90;;;;;;5048849;28;20029;-69
2021/08/11 07:56:33;;;;;;;8.90;6.43;;;16.80;99.90;;;;;;5049096;28;20718;-69
2021/08/11 07:58:58;;;;;;;12.43;7.82;;;16.90;99.90;;;;;;5058793;28;20055;-69
2021/08/11 08:01:24;;;;;;;11.07;6.32;;;17.00;99.50;;;;;;5044995;28;20028;-69
2021/08/11 08:03:50;;;;;;;11.60;6.82;;;17.00;99.70;;;;;;5040293;28;20411;-69
2021/08/11 08:06:16;;;;;;;12.20;7.18;;;17.10;99.70;;;;;;5038971;28;20090;-69
2021/08/11 08:08:41;;;;;;;11.38;6.55;;;17.10;99.30;;;;;;5045611;28;20032;-69
2021/08/11 08:11:07;;;;;;;7.60;6.03;;;17.20;99.30;;;;;;5048655;28;20054;-69
2021/08/11 08:13:33;;;;;;;12.93;6.43;;;17.20;99.30;;;;;;5051496;28;20048;-69
2021/08/11 08:15:59;;;;;;;9.48;6.30;;;17.30;99.00;;;;;;5048437;28;20036;-69
2021/08/11 08:18:27;;;;;;;10.63;6.45;;;17.40;99.10;;;;;;5032495;28;20127;-69
2021/08/11 08:20:55;;;;;;;10.63;7.07;;;17.40;99.10;;;;;;5049460;28;20040;-69
2021/08/11 08:23:22;;;;;;;10.25;6.60;;;17.40;99.30;;;;;;5052522;28;20407;-69
2021/08/11 08:25:48;;;;;;;7.95;6.25;;;17.40;99.40;;;;;;5033081;28;20035;-69
2021/08/11 08:28:15;;;;;;;11.75;6.65;;;17.50;99.20;;;;;;5032941;28;20033;-69
2021/08/11 08:30:42;;;;;;;10.93;6.07;;;17.60;99.40;;;;;;5053284;28;20025;-69
2021/08/11 08:33:07;;;;;;;10.23;6.20;;;17.60;99.00;;;;;;5035401;28;20029;-69
2021/08/11 08:35:34;;;;;;;7.95;6.18;;;17.80;98.60;;;;;;5039738;28;20104;-69
2021/08/11 08:38:01;;;;;;;8.35;5.60;;;17.90;97.90;;;;;;5049339;28;20036;-69
2021/08/11 08:40:35;;;;;;;11.10;6.32;;;18.00;97.40;;;;;;5018329;28;20060;-69
2021/08/11 08:43:01;;;;;;;8.32;5.78;;;18.00;97.40;;;;;;5051802;28;20032;-69
2021/08/11 08:45:27;;;;;;;13.07;6.93;;;18.00;97.10;;;;;;5032235;28;20048;-69
2021/08/11 08:47:54;;;;;;;7.47;5.63;;;17.90;97.30;;;;;;5049605;28;20052;-70
2021/08/11 08:50:21;;;;;;;8.40;5.38;;;17.80;97.70;;;;;;5050054;28;20029;-69
2021/08/11 08:52:49;;;;;;;7.38;5.20;;;17.70;98.10;;;;;;5051637;28;20036;-69
2021/08/11 08:55:16;;;;;;;10.63;6.30;;;17.70;98.50;;;;;;5057068;28;20075;-69
2021/08/11 08:57:42;;;;;;;8.02;5.20;;;17.60;98.00;;;;;;5051717;28;20043;-70
2021/08/11 09:00:09;;;;;;;8.43;5.13;;;17.60;98.20;;;;;;5035721;28;20418;-69
2021/08/11 09:02:41;;;;;;;10.23;4.93;;;17.60;97.70;;;;;;5037141;28;20509;-69
2021/08/11 09:05:09;;;;;;;8.77;5.38;;;17.70;97.40;;;;;;5046184;28;20033;-70
2021/08/11 09:07:35;;;;;;;6.32;5.00;;;17.80;95.80;;;;;;5038041;28;20029;-70
2021/08/11 09:10:18;;;;;;;7.55;5.07;;;17.80;95.60;;;;;;5039283;28;20024;-69
2021/08/11 09:12:46;;;;;;;9.70;5.20;;;17.80;96.20;;;;;;5033743;28;20029;-69
2021/08/11 09:15:46;;;;;;;6.82;4.50;;;18.00;96.00;;;;;;5043222;28;20037;-69
2021/08/11 09:18:20;;;;;;;7.95;5.60;;;18.10;96.50;;;;;;4993351;28;20029;-70
2021/08/11 09:21:10;;;;;;;7.80;4.93;;;18.20;96.00;;;;;;5050276;28;20133;-70
2021/08/11 09:23:37;;;;;;;8.38;4.65;;;18.20;96.00;;;;;;5038821;28;20104;-69
2021/08/11 09:26:06;;;;;;;7.22;4.63;;;18.40;96.20;;;;;;5057905;28;20028;-69
2021/08/11 09:28:33;;;;;;;6.80;4.70;;;18.50;96.40;;;;;;5052508;28;20029;-70
2021/08/11 09:30:59;;;;;;;7.72;4.88;;;18.60;96.10;;;;;;5027062;28;20029;-69
2021/08/11 09:33:26;;;;;;;6.68;4.40;;;18.50;94.90;;;;;;5039957;28;20101;-70
2021/08/11 09:35:53;;;;;;;9.68;4.75;;;18.40;95.10;;;;;;5048833;28;20041;-69
2021/08/11 09:38:19;;;;;;;5.22;4.22;;;18.30;94.60;;;;;;5060142;28;20025;-69
2021/08/11 09:40:47;;;;;;;7.60;4.35;;;18.40;95.40;;;;;;5033081;28;20557;-69
2021/08/11 09:43:32;;;;;;;7.38;4.22;;;18.40;94.80;;;;;;5046964;28;20113;-69
2021/08/11 09:45:58;;;;;;;7.97;4.60;;;18.40;95.20;;;;;;5054017;28;20434;-69
2021/08/11 09:48:38;;;;;;;6.32;4.57;;;18.60;94.80;;;;;;5059190;28;20061;-70
2021/08/11 09:51:06;;;;;;;7.68;4.57;;;18.70;95.50;;;;;;5056218;28;20376;-69
2021/08/11 09:53:37;;;;;;;6.70;4.75;;;18.80;95.70;;;;;;5056589;28;20036;-70
2021/08/11 09:56:06;;;;;;;6.93;4.75;;;18.90;95.20;;;;;;5048977;28;20037;-69
2021/08/11 09:58:38;;;;;;;7.13;4.40;;;18.90;94.80;;;;;;5058778;28;20045;-70
2021/08/11 10:01:25;;;;;;;5.95;4.20;;;19.00;94.60;;;;;;5044389;28;20479;-69
2021/08/11 10:04:01;;;;;;;6.95;4.18;;;19.10;93.20;;;;;;5053929;28;20033;-70
2021/08/11 10:06:32;;;;;;;10.32;4.95;;;19.40;93.50;;;;;;5057062;28;20028;-70
2021/08/11 10:09:17;;;;;;;;;;;19.50;93.00;;;;;;5052698;28;20028;-71
2021/08/11 10:11:50;;;;;;;4.80;3.15;;;19.70;93.20;;;;;;5049694;28;19919;-70
2021/08/11 10:14:18;;;;;;;7.03;3.78;;;19.90;92.80;;;;;;5055046;28;20079;-69
2021/08/11 10:16:45;;;;;;;6.15;3.40;;;20.10;92.40;;;;;;5040826;28;20550;-70
2021/08/11 10:19:12;;;;;;;4.63;3.40;;;20.20;92.30;;;;;;5047906;28;20068;-70
2021/08/11 10:21:46;;;;;;;5.10;3.53;;;20.30;92.40;;;;;;5058870;28;20064;-69
2021/08/11 10:24:12;;;;;;;4.38;3.03;;;20.30;92.00;;;;;;5033352;28;20079;-70
2021/08/11 10:26:38;;;;;;;4.55;3.28;;;20.30;91.90;;;;;;5028298;28;20108;-70
2021/08/11 10:29:06;;;;;;;5.80;3.75;;;20.20;92.40;;;;;;5040045;28;20107;-70
2021/08/11 10:31:32;;;;;;;5.63;3.38;;;20.10;92.80;;;;;;5057621;28;20036;-69
2021/08/11 10:34:00;;;;;;;7.60;3.92;;;20.00;93.20;;;;;;5024273;28;20490;-69
2021/08/11 10:36:30;;;;;;;4.75;3.25;;;19.90;92.20;;;;;;5038260;28;20033;-69
2021/08/11 10:38:58;;;;;;;6.45;3.50;;;19.90;92.50;;;;;;5056269;28;20103;-70
2021/08/11 10:41:32;;;;;;;4.72;2.92;;;19.90;93.30;;;;;;5034499;28;20044;-67
2021/08/11 10:43:59;;;;;;;6.40;2.97;;;19.90;91.90;;;;;;5053402;28;20029;-66
2021/08/11 10:46:43;;;;;;;5.85;3.20;;;19.90;91.90;;;;;;5046474;28;20021;-69
2021/08/11 10:49:16;;;;;;;5.00;3.42;;;19.90;92.00;;;;;;5051956;28;20023;-68
2021/08/11 10:51:43;;;;;;;4.70;2.95;;;19.90;92.20;;;;;;5053464;28;20486;-68
2021/08/11 10:54:10;;;;;;;5.00;3.00;;;20.10;91.20;;;;;;5048947;28;20029;-70
2021/08/11 10:56:46;;;;;;;4.13;2.60;;;20.20;90.40;;;;;;5053610;28;20544;-70
2021/08/11 10:59:21;;;;;;;3.55;2.65;;;20.30;90.70;;;;;;5040910;28;20480;-69
2021/08/11 11:01:48;;;;;;;4.05;3.05;;;20.30;89.90;;;;;;5053530;28;20037;-69
2021/08/11 11:04:37;;;;;;;3.88;2.63;;;20.30;90.70;;;;;;5049669;28;20036;-69
2021/08/11 11:07:11;;;;;;;5.35;2.90;;;20.40;90.80;;;;;;5045796;28;20537;-70
2021/08/11 11:09:38;;;;;;;4.03;2.70;;;20.40;91.10;;;;;;5052749;28;20036;-70
2021/08/11 11:12:16;;;;;;;4.45;2.75;;;20.40;89.30;;;;;;5039315;28;20382;-69
2021/08/11 11:14:53;;;;;;;4.82;2.78;;;20.30;90.10;;;;;;5046712;28;20045;-70
2021/08/11 11:17:21;;;;;;;6.93;3.45;;;20.40;91.00;;;;;;5032876;28;20063;-70
2021/08/11 11:20:06;;;;;;;4.38;3.08;;;20.50;91.60;;;;;;5050418;28;20040;-67
2021/08/11 11:22:35;;;;;;;4.18;2.70;;;21.00;92.60;;;;;;5043119;28;20037;-71
2021/08/11 11:25:02;;;;;;;3.85;2.30;;;21.50;92.30;;;;;;5050658;28;20057;-68
2021/08/11 11:27:55;;;;;;;3.97;2.58;;;22.40;91.80;;;;;;5050836;28;20024;-69
2021/08/11 11:30:27;;;;;;;3.45;2.40;;;24.50;90.40;;;;;;5039401;28;20064;-69
2021/08/11 11:32:53;;;;;;;4.10;2.30;;;27.20;80.80;;;;;;5039488;28;20554;-69
2021/08/11 11:35:24;;;;;;;4.05;2.45;;;29.40;69.40;;;;;;5050813;28;20068;-66
2021/08/11 11:38:07;;;;;;;4.40;2.50;;;31.30;64.90;;;;;;5050115;28;20111;-69
2021/08/11 11:40:53;;;;;;;3.55;2.63;;;33.20;59.40;;;;;;5051125;28;20029;-68
2021/08/11 11:43:22;;;;;;;5.47;2.60;;;34.70;55.40;;;;;;5034139;28;20051;-69
2021/08/11 11:45:47;;;;;;;4.53;2.67;;;35.80;50.10;;;;;;5055818;28;20057;-65
2021/08/11 11:48:14;;;;;;;3.20;2.80;;;36.10;48.00;;;;;;5055810;28;20061;-68
2021/08/11 11:50:43;;;;;;;3.78;2.60;;;36.20;45.70;;;;;;5052713;28;20037;-67
2021/08/11 11:53:18;;;;;;;3.67;2.50;;;36.70;42.70;;;;;;5048823;28;20113;-69
2021/08/11 11:55:44;;;;;;;4.07;2.67;;;36.90;44.10;;;;;;5069200;28;20092;-69
2021/08/11 11:58:13;;;;;;;3.90;2.78;;;36.90;43.90;;;;;;5057650;28;20075;-69
2021/08/11 12:00:39;;;;;;;2.50;2.25;;;36.00;43.30;;;;;;5048866;28;20120;-68
2021/08/11 12:03:05;;;;;;;5.18;2.67;;;34.10;45.60;;;;;;5033664;28;20044;-67
2021/08/11 12:05:46;;;;;;;3.83;2.70;;;32.40;47.00;;;;;;5021161;28;20025;-67
2021/08/11 12:08:17;;;;;;;4.38;2.42;;;32.50;51.40;;;;;;5048700;28;20086;-68
2021/08/11 12:10:48;;;;;;;3.88;2.25;;;32.80;48.40;;;;;;5034147;28;20025;-66
2021/08/11 12:13:14;;;;;;;4.25;2.28;;;33.30;45.80;;;;;;5054852;28;20108;-68
2021/08/11 12:15:41;;;;;;;2.70;1.88;;;33.80;48.60;;;;;;5058583;28;20025;-68
2021/08/11 12:18:16;;;;;;;4.10;2.25;;;33.80;45.30;;;;;;5035585;28;20539;-69
2021/08/11 12:20:44;;;;;;;4.13;2.70;;;33.70;46.90;;;;;;5050410;28;20044;-68
2021/08/11 12:23:18;;;;;;;12.63;10.77;;;33.60;48.20;;;;;;5038454;28;20478;-69
2021/08/11 12:25:59;;;;;;;12.57;9.90;;;33.20;46.80;;;;;;5045328;28;20056;-69
2021/08/11 12:28:46;;;;;;;5.82;4.00;;;32.70;47.70;;;;;;5048215;28;20036;-69
2021/08/11 12:31:24;;;;;;;4.90;2.38;;;31.90;48.20;;;;;;5049883;28;20526;-68
2021/08/11 12:33:52;;;;;;;4.32;2.20;;;31.10;48.70;;;;;;5052815;28;20025;-68
2021/08/11 12:36:23;;;;;;;5.85;1.90;;;30.50;51.30;;;;;;5050734;28;20121;-68
2021/08/11 12:39:13;;;;;;;2.47;1.98;;;30.30;54.20;;;;;;5045229;28;20060;-69
2021/08/11 12:41:43;;;;;;;4.67;2.37;;;30.00;50.80;;;;;;5028599;28;20025;-68
2021/08/11 12:44:15;;;;;;;3.17;2.20;;;29.60;53.40;;;;;;5047369;28;20566;-68